sensor_id;sensor_type;location;lat;lon;timestamp;pressure;altitude;pressure_sealevel;temperature;humidity
71165;BME280;58859;55.132;-1.586;2023-09-07T00:01:33;101690.03;;;22.00;100.00
71165;BME280;58859;55.132;-1.586;2023-09-07T00:03:58;101692.78;;;20.53;100.00
71165;BME280;58859;55.132;-1.586;2023-09-07T00:06:24;101695.53;;;21.98;100.00
71165;BME280;58859;55.132;-1.586;2023-09-07T00:08:50;101697.84;;;21.39;100.00
71165;BME280;58859;55.132;-1.586;2023-09-07T00:11:15;101700.47;;;19.16;100.00
71165;BME280;58859;55.132;-1.586;2023-09-07T00:13:41;101692.53;;;20.69;100.00
71165;BME280;58859;55.132;-1.586;2023-09-07T00:16:06;101692.19;;;20.00;100.00
71165;BME280;58859;55.132;-1.586;2023-09-07T00:18:33;101693.28;;;20.42;100.00
71165;BME280;58859;55.132;-1.586;2023-09-07T00:20:59;101684.78;;;20.46;100.00
71165;BME280;58859;55.132;-1.586;2023-09-07T00:23:25;101686.84;;;20.15;100.00
71165;BME280;58859;55.132;-1.586;2023-09-07T00:25:51;101689.69;;;20.14;100.00
71165;BME280;58859;55.132;-1.586;2023-09-07T00:28:16;101686.47;;;21.80;100.00
71165;BME280;58859;55.132;-1.586;2023-09-07T00:30:41;101681.13;;;22.07;100.00
71165;BME280;58859;55.132;-1.586;2023-09-07T00:33:07;101669.75;;;20.47;100.00
71165;BME280;58859;55.132;-1.586;2023-09-07T00:35:33;101676.47;;;21.13;100.00
71165;BME280;58859;55.132;-1.586;2023-09-07T00:37:58;101681.34;;;22.25;100.00
71165;BME280;58859;55.132;-1.586;2023-09-07T00:40:23;101670.44;;;21.60;100.00
71165;BME280;58859;55.132;-1.586;2023-09-07T00:42:50;101671.31;;;21.67;100.00
71165;BME280;58859;55.132;-1.586;2023-09-07T00:45:16;101664.69;;;21.15;100.00
71165;BME280;58859;55.132;-1.586;2023-09-07T00:47:41;101668.41;;;20.00;100.00
71165;BME280;58859;55.132;-1.586;2023-09-07T00:50:07;101657.13;;;21.81;100.00
71165;BME280;58859;55.132;-1.586;2023-09-07T00:52:34;101660.50;;;21.62;100.00
71165;BME280;58859;55.132;-1.586;2023-09-07T00:55:01;101659.88;;;20.77;100.00
71165;BME280;58859;55.132;-1.586;2023-09-07T00:57:26;101652.13;;;21.58;100.00
71165;BME280;58859;55.132;-1.586;2023-09-07T00:59:52;101658.63;;;22.64;100.00
71165;BME280;58859;55.132;-1.586;2023-09-07T01:02:17;101654.28;;;21.42;100.00
71165;BME280;58859;55.132;-1.586;2023-09-07T01:04:43;101638.84;;;21.45;100.00
71165;BME280;58859;55.132;-1.586;2023-09-07T01:07:14;101654.38;;;21.61;100.00
71165;BME280;58859;55.132;-1.586;2023-09-07T01:09:43;101662.41;;;21.12;100.00
71165;BME280;58859;55.132;-1.586;2023-09-07T01:12:16;101656.97;;;22.63;100.00
71165;BME280;58859;55.132;-1.586;2023-09-07T01:14:42;101671.09;;;22.89;100.00
71165;BME280;58859;55.132;-1.586;2023-09-07T01:17:08;101663.00;;;23.68;100.00
71165;BME280;58859;55.132;-1.586;2023-09-07T01:19:34;101663.81;;;23.75;100.00
71165;BME280;58859;55.132;-1.586;2023-09-07T01:22:00;101658.59;;;24.00;100.00
71165;BME280;58859;55.132;-1.586;2023-09-07T01:24:26;101648.63;;;24.33;100.00
71165;BME280;58859;55.132;-1.586;2023-09-07T01:26:56;101639.63;;;24.34;100.00
71165;BME280;58859;55.132;-1.586;2023-09-07T01:29:22;101634.50;;;24.33;100.00
71165;BME280;58859;55.132;-1.586;2023-09-07T01:31:47;101631.56;;;24.41;100.00
71165;BME280;58859;55.132;-1.586;2023-09-07T01:34:13;101648.88;;;23.81;100.00
71165;BME280;58859;55.132;-1.586;2023-09-07T01:36:38;101646.06;;;24.14;100.00
71165;BME280;58859;55.132;-1.586;2023-09-07T01:39:04;101643.97;;;24.29;100.00
71165;BME280;58859;55.132;-1.586;2023-09-07T01:41:33;101644.78;;;24.29;100.00
71165;BME280;58859;55.132;-1.586;2023-09-07T01:43:58;101643.59;;;24.19;100.00
71165;BME280;58859;55.132;-1.586;2023-09-07T01:46:24;101644.91;;;24.66;100.00
71165;BME280;58859;55.132;-1.586;2023-09-07T01:48:49;101649.72;;;23.68;100.00
71165;BME280;58859;55.132;-1.586;2023-09-07T01:51:15;101656.59;;;22.92;100.00
71165;BME280;58859;55.132;-1.586;2023-09-07T01:53:40;101660.72;;;23.78;100.00
71165;BME280;58859;55.132;-1.586;2023-09-07T01:56:06;101662.94;;;23.88;100.00
71165;BME280;58859;55.132;-1.586;2023-09-07T01:58:32;101658.63;;;24.38;100.00
71165;BME280;58859;55.132;-1.586;2023-09-07T02:00:58;101656.59;;;24.65;100.00
71165;BME280;58859;55.132;-1.586;2023-09-07T02:03:24;101657.13;;;24.73;100.00
71165;BME280;58859;55.132;-1.586;2023-09-07T02:05:50;101633.66;;;24.64;100.00
71165;BME280;58859;55.132;-1.586;2023-09-07T02:08:15;101649.63;;;24.64;100.00
71165;BME280;58859;55.132;-1.586;2023-09-07T02:10:40;101645.66;;;24.48;100.00
71165;BME280;58859;55.132;-1.586;2023-09-07T02:13:06;101653.59;;;24.54;100.00
71165;BME280;58859;55.132;-1.586;2023-09-07T02:15:31;101646.81;;;24.58;100.00
71165;BME280;58859;55.132;-1.586;2023-09-07T02:17:57;101659.41;;;24.38;100.00
71165;BME280;58859;55.132;-1.586;2023-09-07T02:20:22;101667.75;;;24.04;100.00
71165;BME280;58859;55.132;-1.586;2023-09-07T02:22:48;101661.94;;;24.27;100.00
71165;BME280;58859;55.132;-1.586;2023-09-07T02:25:13;101663.47;;;24.47;100.00
71165;BME280;58859;55.132;-1.586;2023-09-07T02:27:40;101663.38;;;24.61;100.00
71165;BME280;58859;55.132;-1.586;2023-09-07T02:30:06;101670.66;;;24.72;100.00
71165;BME280;58859;55.132;-1.586;2023-09-07T02:32:31;101677.38;;;24.12;100.00
71165;BME280;58859;55.132;-1.586;2023-09-07T02:34:57;101671.09;;;24.37;100.00
71165;BME280;58859;55.132;-1.586;2023-09-07T02:37:22;101658.53;;;24.51;100.00
71165;BME280;58859;55.132;-1.586;2023-09-07T02:39:48;101655.66;;;24.52;100.00
71165;BME280;58859;55.132;-1.586;2023-09-07T02:42:13;101660.22;;;24.01;100.00
71165;BME280;58859;55.132;-1.586;2023-09-07T02:44:39;101639.56;;;24.41;100.00
71165;BME280;58859;55.132;-1.586;2023-09-07T02:47:04;101637.03;;;24.52;100.00
71165;BME280;58859;55.132;-1.586;2023-09-07T02:49:30;101638.44;;;24.55;100.00
71165;BME280;58859;55.132;-1.586;2023-09-07T02:51:56;101633.06;;;24.62;100.00
71165;BME280;58859;55.132;-1.586;2023-09-07T02:54:22;101637.22;;;24.57;100.00
71165;BME280;58859;55.132;-1.586;2023-09-07T02:56:47;101643.16;;;24.22;100.00
71165;BME280;58859;55.132;-1.586;2023-09-07T02:59:13;101648.53;;;24.09;100.00
71165;BME280;58859;55.132;-1.586;2023-09-07T03:01:39;101635.97;;;23.84;100.00
71165;BME280;58859;55.132;-1.586;2023-09-07T03:04:05;101623.56;;;24.47;100.00
71165;BME280;58859;55.132;-1.586;2023-09-07T03:06:31;101626.28;;;24.66;100.00
71165;BME280;58859;55.132;-1.586;2023-09-07T03:08:57;101629.84;;;24.78;100.00
71165;BME280;58859;55.132;-1.586;2023-09-07T03:11:22;101627.84;;;24.48;100.00
71165;BME280;58859;55.132;-1.586;2023-09-07T03:13:48;101619.59;;;24.32;100.00
71165;BME280;58859;55.132;-1.586;2023-09-07T03:16:13;101640.72;;;24.20;100.00
71165;BME280;58859;55.132;-1.586;2023-09-07T03:18:39;101645.25;;;24.44;100.00
71165;BME280;58859;55.132;-1.586;2023-09-07T03:21:04;101643.00;;;24.48;100.00
71165;BME280;58859;55.132;-1.586;2023-09-07T03:23:30;101651.56;;;24.50;100.00
71165;BME280;58859;55.132;-1.586;2023-09-07T03:25:57;101646.38;;;24.62;100.00
71165;BME280;58859;55.132;-1.586;2023-09-07T03:28:23;101640.41;;;24.66;100.00
71165;BME280;58859;55.132;-1.586;2023-09-07T03:30:51;101647.88;;;24.20;100.00
71165;BME280;58859;55.132;-1.586;2023-09-07T03:33:16;101649.00;;;24.37;100.00
71165;BME280;58859;55.132;-1.586;2023-09-07T03:35:41;101645.53;;;24.36;100.00
71165;BME280;58859;55.132;-1.586;2023-09-07T03:38:07;101647.50;;;23.65;100.00
71165;BME280;58859;55.132;-1.586;2023-09-07T03:40:32;101648.00;;;23.87;100.00
71165;BME280;58859;55.132;-1.586;2023-09-07T03:42:58;101634.06;;;24.36;100.00
71165;BME280;58859;55.132;-1.586;2023-09-07T03:45:23;101625.47;;;24.40;100.00
71165;BME280;58859;55.132;-1.586;2023-09-07T03:47:49;101621.00;;;24.34;100.00
71165;BME280;58859;55.132;-1.586;2023-09-07T03:50:14;101626.06;;;24.42;100.00
71165;BME280;58859;55.132;-1.586;2023-09-07T03:52:40;101624.69;;;24.33;100.00
71165;BME280;58859;55.132;-1.586;2023-09-07T03:55:06;101617.50;;;23.58;100.00
71165;BME280;58859;55.132;-1.586;2023-09-07T03:57:31;101623.38;;;24.18;100.00
71165;BME280;58859;55.132;-1.586;2023-09-07T03:59:57;101624.81;;;24.07;100.00
71165;BME280;58859;55.132;-1.586;2023-09-07T04:02:23;101632.63;;;24.02;100.00
71165;BME280;58859;55.132;-1.586;2023-09-07T04:04:49;101636.75;;;23.98;100.00
71165;BME280;58859;55.132;-1.586;2023-09-07T04:07:15;101648.38;;;23.97;100.00
71165;BME280;58859;55.132;-1.586;2023-09-07T04:09:40;101651.22;;;24.02;100.00
71165;BME280;58859;55.132;-1.586;2023-09-07T04:12:06;101654.94;;;23.94;100.00
71165;BME280;58859;55.132;-1.586;2023-09-07T04:14:32;101655.31;;;24.11;100.00
71165;BME280;58859;55.132;-1.586;2023-09-07T04:16:58;101658.53;;;24.20;100.00
71165;BME280;58859;55.132;-1.586;2023-09-07T04:19:23;101650.19;;;24.10;100.00
71165;BME280;58859;55.132;-1.586;2023-09-07T04:21:48;101653.63;;;24.17;100.00
71165;BME280;58859;55.132;-1.586;2023-09-07T04:24:14;101632.19;;;24.05;100.00
71165;BME280;58859;55.132;-1.586;2023-09-07T04:26:39;101640.16;;;23.61;100.00
71165;BME280;58859;55.132;-1.586;2023-09-07T04:29:06;101636.84;;;24.16;100.00
71165;BME280;58859;55.132;-1.586;2023-09-07T04:31:32;101640.38;;;24.03;100.00
71165;BME280;58859;55.132;-1.586;2023-09-07T04:33:58;101649.88;;;23.86;100.00
71165;BME280;58859;55.132;-1.586;2023-09-07T04:36:23;101622.91;;;23.83;100.00
71165;BME280;58859;55.132;-1.586;2023-09-07T04:38:48;101653.56;;;23.85;100.00
71165;BME280;58859;55.132;-1.586;2023-09-07T04:41:14;101656.28;;;24.17;100.00
71165;BME280;58859;55.132;-1.586;2023-09-07T04:43:41;101649.16;;;24.11;100.00
71165;BME280;58859;55.132;-1.586;2023-09-07T04:46:12;101652.75;;;24.29;100.00
71165;BME280;58859;55.132;-1.586;2023-09-07T04:48:38;101653.25;;;24.07;100.00
71165;BME280;58859;55.132;-1.586;2023-09-07T04:51:07;101651.13;;;23.77;100.00
71165;BME280;58859;55.132;-1.586;2023-09-07T04:53:35;101664.44;;;24.22;100.00
71165;BME280;58859;55.132;-1.586;2023-09-07T04:56:05;101656.94;;;23.48;100.00
71165;BME280;58859;55.132;-1.586;2023-09-07T04:58:31;101662.66;;;23.58;100.00
71165;BME280;58859;55.132;-1.586;2023-09-07T05:01:07;101651.63;;;23.48;100.00
71165;BME280;58859;55.132;-1.586;2023-09-07T05:03:34;101638.34;;;23.99;100.00
71165;BME280;58859;55.132;-1.586;2023-09-07T05:06:00;101644.91;;;23.32;100.00
71165;BME280;58859;55.132;-1.586;2023-09-07T05:08:25;101653.94;;;23.89;100.00
71165;BME280;58859;55.132;-1.586;2023-09-07T05:10:59;101652.63;;;24.11;100.00
71165;BME280;58859;55.132;-1.586;2023-09-07T05:13:25;101657.56;;;24.01;100.00
71165;BME280;58859;55.132;-1.586;2023-09-07T05:15:52;101662.44;;;23.53;100.00
71165;BME280;58859;55.132;-1.586;2023-09-07T05:18:18;101659.63;;;23.99;100.00
71165;BME280;58859;55.132;-1.586;2023-09-07T05:20:44;101656.13;;;23.34;100.00
71165;BME280;58859;55.132;-1.586;2023-09-07T05:23:12;101650.63;;;21.84;100.00
71165;BME280;58859;55.132;-1.586;2023-09-07T05:25:52;101632.41;;;22.15;100.00
71165;BME280;58859;55.132;-1.586;2023-09-07T05:28:19;101640.69;;;22.72;100.00
71165;BME280;58859;55.132;-1.586;2023-09-07T05:30:45;101643.50;;;23.17;100.00
71165;BME280;58859;55.132;-1.586;2023-09-07T05:33:11;101650.06;;;23.91;100.00
71165;BME280;58859;55.132;-1.586;2023-09-07T05:35:37;101644.00;;;23.78;100.00
71165;BME280;58859;55.132;-1.586;2023-09-07T05:38:04;101659.22;;;23.95;100.00
71165;BME280;58859;55.132;-1.586;2023-09-07T05:40:34;101666.00;;;23.01;100.00
71165;BME280;58859;55.132;-1.586;2023-09-07T05:42:59;101678.00;;;21.56;100.00
71165;BME280;58859;55.132;-1.586;2023-09-07T05:45:25;101671.03;;;22.50;100.00
71165;BME280;58859;55.132;-1.586;2023-09-07T05:47:50;101678.03;;;22.64;100.00
71165;BME280;58859;55.132;-1.586;2023-09-07T05:50:16;101686.59;;;22.06;100.00
71165;BME280;58859;55.132;-1.586;2023-09-07T05:52:41;101682.47;;;21.56;100.00
71165;BME280;58859;55.132;-1.586;2023-09-07T05:55:07;101700.19;;;20.57;100.00
71165;BME280;58859;55.132;-1.586;2023-09-07T05:57:32;101690.75;;;20.97;100.00
71165;BME280;58859;55.132;-1.586;2023-09-07T05:59:57;101679.59;;;21.92;100.00
71165;BME280;58859;55.132;-1.586;2023-09-07T06:02:23;101684.47;;;21.19;100.00
71165;BME280;58859;55.132;-1.586;2023-09-07T06:04:48;101674.47;;;21.49;100.00
71165;BME280;58859;55.132;-1.586;2023-09-07T06:07:14;101678.59;;;21.93;100.00
71165;BME280;58859;55.132;-1.586;2023-09-07T06:09:39;101683.09;;;21.92;100.00
71165;BME280;58859;55.132;-1.586;2023-09-07T06:12:05;101670.84;;;22.65;100.00
71165;BME280;58859;55.132;-1.586;2023-09-07T06:14:30;101676.13;;;23.50;100.00
71165;BME280;58859;55.132;-1.586;2023-09-07T06:16:56;101695.09;;;21.60;100.00
71165;BME280;58859;55.132;-1.586;2023-09-07T06:19:21;101699.28;;;21.42;100.00
71165;BME280;58859;55.132;-1.586;2023-09-07T06:21:47;101697.06;;;22.27;100.00
71165;BME280;58859;55.132;-1.586;2023-09-07T06:24:12;101679.75;;;22.38;100.00
71165;BME280;58859;55.132;-1.586;2023-09-07T06:26:37;101679.03;;;23.35;100.00
71165;BME280;58859;55.132;-1.586;2023-09-07T06:29:03;101673.88;;;23.54;100.00
71165;BME280;58859;55.132;-1.586;2023-09-07T06:31:28;101658.63;;;23.93;100.00
71165;BME280;58859;55.132;-1.586;2023-09-07T06:33:54;101632.88;;;24.32;100.00
71165;BME280;58859;55.132;-1.586;2023-09-07T06:36:19;101598.06;;;24.02;100.00
71165;BME280;58859;55.132;-1.586;2023-09-07T06:38:45;101580.78;;;23.35;100.00
71165;BME280;58859;55.132;-1.586;2023-09-07T06:41:10;101593.59;;;23.52;100.00
71165;BME280;58859;55.132;-1.586;2023-09-07T06:43:37;101598.69;;;23.53;100.00
71165;BME280;58859;55.132;-1.586;2023-09-07T06:46:06;101606.78;;;23.01;100.00
71165;BME280;58859;55.132;-1.586;2023-09-07T06:48:32;101620.50;;;21.91;100.00
71165;BME280;58859;55.132;-1.586;2023-09-07T06:51:02;101617.41;;;22.74;100.00
71165;BME280;58859;55.132;-1.586;2023-09-07T06:53:29;101624.47;;;21.67;100.00
71165;BME280;58859;55.132;-1.586;2023-09-07T06:56:01;101618.53;;;19.76;100.00
71165;BME280;58859;55.132;-1.586;2023-09-07T06:58:27;101595.63;;;19.18;100.00
71165;BME280;58859;55.132;-1.586;2023-09-07T07:00:57;101588.44;;;19.12;100.00
71165;BME280;58859;55.132;-1.586;2023-09-07T07:03:26;101591.88;;;19.27;100.00
71165;BME280;58859;55.132;-1.586;2023-09-07T07:05:51;101608.94;;;19.54;100.00
71165;BME280;58859;55.132;-1.586;2023-09-07T07:08:17;101616.47;;;20.92;100.00
71165;BME280;58859;55.132;-1.586;2023-09-07T07:10:42;101622.81;;;22.07;100.00
71165;BME280;58859;55.132;-1.586;2023-09-07T07:13:08;101636.78;;;22.68;100.00
71165;BME280;58859;55.132;-1.586;2023-09-07T07:15:33;101634.31;;;23.19;100.00
71165;BME280;58859;55.132;-1.586;2023-09-07T07:18:01;101637.44;;;23.74;100.00
71165;BME280;58859;55.132;-1.586;2023-09-07T07:20:26;101648.16;;;23.48;100.00
71165;BME280;58859;55.132;-1.586;2023-09-07T07:22:52;101643.69;;;23.35;100.00
71165;BME280;58859;55.132;-1.586;2023-09-07T07:25:17;101655.94;;;23.42;100.00
71165;BME280;58859;55.132;-1.586;2023-09-07T07:27:43;101651.38;;;23.69;100.00
71165;BME280;58859;55.132;-1.586;2023-09-07T07:30:09;101657.63;;;21.98;100.00
71165;BME280;58859;55.132;-1.586;2023-09-07T07:32:34;101664.03;;;20.86;100.00
71165;BME280;58859;55.132;-1.586;2023-09-07T07:35:00;101667.97;;;20.96;100.00
71165;BME280;58859;55.132;-1.586;2023-09-07T07:37:25;101673.53;;;21.63;100.00
71165;BME280;58859;55.132;-1.586;2023-09-07T07:39:50;101696.78;;;21.34;100.00
71165;BME280;58859;55.132;-1.586;2023-09-07T07:42:16;101685.38;;;20.84;100.00
71165;BME280;58859;55.132;-1.586;2023-09-07T07:44:43;101705.38;;;20.93;100.00
71165;BME280;58859;55.132;-1.586;2023-09-07T07:47:09;101708.47;;;22.21;100.00
71165;BME280;58859;55.132;-1.586;2023-09-07T07:49:34;101712.59;;;21.55;100.00
71165;BME280;58859;55.132;-1.586;2023-09-07T07:52:01;101713.75;;;21.18;100.00
71165;BME280;58859;55.132;-1.586;2023-09-07T07:54:26;101703.16;;;21.18;100.00
71165;BME280;58859;55.132;-1.586;2023-09-07T07:56:53;101712.81;;;22.42;100.00
71165;BME280;58859;55.132;-1.586;2023-09-07T07:59:19;101724.38;;;21.52;100.00
71165;BME280;58859;55.132;-1.586;2023-09-07T08:01:44;101719.06;;;21.80;100.00
71165;BME280;58859;55.132;-1.586;2023-09-07T08:04:10;101715.06;;;22.45;100.00
71165;BME280;58859;55.132;-1.586;2023-09-07T08:06:36;101713.22;;;21.91;100.00
71165;BME280;58859;55.132;-1.586;2023-09-07T08:09:01;101713.44;;;21.90;100.00
71165;BME280;58859;55.132;-1.586;2023-09-07T08:11:27;101721.63;;;21.67;100.00
71165;BME280;58859;55.132;-1.586;2023-09-07T08:13:53;101728.88;;;21.24;100.00
71165;BME280;58859;55.132;-1.586;2023-09-07T08:16:18;101731.72;;;20.80;100.00
71165;BME280;58859;55.132;-1.586;2023-09-07T08:18:44;101718.31;;;21.58;100.00
71165;BME280;58859;55.132;-1.586;2023-09-07T08:21:09;101702.44;;;22.60;100.00
71165;BME280;58859;55.132;-1.586;2023-09-07T08:23:35;101710.31;;;22.27;100.00
71165;BME280;58859;55.132;-1.586;2023-09-07T08:26:01;101718.84;;;22.16;100.00
71165;BME280;58859;55.132;-1.586;2023-09-07T08:28:28;101722.69;;;22.07;100.00
71165;BME280;58859;55.132;-1.586;2023-09-07T08:30:54;101721.31;;;21.83;100.00
71165;BME280;58859;55.132;-1.586;2023-09-07T08:33:23;101719.09;;;21.87;100.00
71165;BME280;58859;55.132;-1.586;2023-09-07T08:35:56;101747.19;;;20.62;100.00
71165;BME280;58859;55.132;-1.586;2023-09-07T08:38:22;101745.81;;;20.66;100.00
71165;BME280;58859;55.132;-1.586;2023-09-07T08:40:55;101723.47;;;21.66;100.00
71165;BME280;58859;55.132;-1.586;2023-09-07T08:43:24;101716.13;;;21.34;100.00
71165;BME280;58859;55.132;-1.586;2023-09-07T08:45:55;101721.09;;;22.73;100.00
71165;BME280;58859;55.132;-1.586;2023-09-07T08:48:26;101720.28;;;23.05;100.00
71165;BME280;58859;55.132;-1.586;2023-09-07T08:50:52;101701.59;;;23.84;100.00
71165;BME280;58859;55.132;-1.586;2023-09-07T08:53:18;101704.16;;;24.10;100.00
71165;BME280;58859;55.132;-1.586;2023-09-07T08:55:48;101720.03;;;23.59;100.00
71165;BME280;58859;55.132;-1.586;2023-09-07T08:58:13;101707.25;;;24.45;100.00
71165;BME280;58859;55.132;-1.586;2023-09-07T09:00:39;101695.75;;;24.20;100.00
71165;BME280;58859;55.132;-1.586;2023-09-07T09:03:09;101678.50;;;22.20;100.00
71165;BME280;58859;55.132;-1.586;2023-09-07T09:05:35;101700.09;;;20.72;100.00
71165;BME280;58859;55.132;-1.586;2023-09-07T09:08:03;101723.66;;;22.53;100.00
71165;BME280;58859;55.132;-1.586;2023-09-07T09:10:30;101697.72;;;23.80;100.00
71165;BME280;58859;55.132;-1.586;2023-09-07T09:12:55;101694.16;;;23.15;100.00
71165;BME280;58859;55.132;-1.586;2023-09-07T09:15:22;101693.31;;;23.48;100.00
71165;BME280;58859;55.132;-1.586;2023-09-07T09:17:47;101704.91;;;22.61;100.00
71165;BME280;58859;55.132;-1.586;2023-09-07T09:20:26;101703.34;;;22.19;100.00
71165;BME280;58859;55.132;-1.586;2023-09-07T09:22:54;101691.38;;;22.30;100.00
71165;BME280;58859;55.132;-1.586;2023-09-07T09:25:21;101684.09;;;22.58;100.00
71165;BME280;58859;55.132;-1.586;2023-09-07T09:27:47;101678.75;;;22.45;100.00
71165;BME280;58859;55.132;-1.586;2023-09-07T09:30:13;101683.72;;;23.20;100.00
71165;BME280;58859;55.132;-1.586;2023-09-07T09:32:41;101669.88;;;22.72;100.00
71165;BME280;58859;55.132;-1.586;2023-09-07T09:35:08;101662.34;;;22.02;100.00
71165;BME280;58859;55.132;-1.586;2023-09-07T09:37:42;101665.75;;;21.55;100.00
71165;BME280;58859;55.132;-1.586;2023-09-07T09:40:08;101656.91;;;21.76;100.00
71165;BME280;58859;55.132;-1.586;2023-09-07T09:42:35;101646.69;;;21.73;100.00
71165;BME280;58859;55.132;-1.586;2023-09-07T09:45:01;101625.53;;;21.73;100.00
71165;BME280;58859;55.132;-1.586;2023-09-07T09:47:30;101633.66;;;21.71;100.00
71165;BME280;58859;55.132;-1.586;2023-09-07T09:49:57;101642.53;;;21.92;100.00
71165;BME280;58859;55.132;-1.586;2023-09-07T09:52:25;101656.25;;;21.74;100.00
71165;BME280;58859;55.132;-1.586;2023-09-07T09:54:52;101664.19;;;22.08;100.00
71165;BME280;58859;55.132;-1.586;2023-09-07T09:57:17;101666.81;;;22.02;100.00
71165;BME280;58859;55.132;-1.586;2023-09-07T09:59:43;101693.66;;;22.46;100.00
71165;BME280;58859;55.132;-1.586;2023-09-07T10:02:10;101695.38;;;23.00;100.00
71165;BME280;58859;55.132;-1.586;2023-09-07T10:04:36;101684.97;;;23.18;100.00
71165;BME280;58859;55.132;-1.586;2023-09-07T10:07:01;101667.81;;;23.07;100.00
71165;BME280;58859;55.132;-1.586;2023-09-07T10:09:34;101688.63;;;22.71;100.00
71165;BME280;58859;55.132;-1.586;2023-09-07T10:12:02;101686.97;;;23.22;100.00
71165;BME280;58859;55.132;-1.586;2023-09-07T10:14:42;101698.47;;;23.93;100.00
71165;BME280;58859;55.132;-1.586;2023-09-07T10:17:08;101710.00;;;23.81;100.00
71165;BME280;58859;55.132;-1.586;2023-09-07T10:19:35;101709.53;;;23.90;100.00
71165;BME280;58859;55.132;-1.586;2023-09-07T10:22:02;101706.03;;;24.03;100.00
71165;BME280;58859;55.132;-1.586;2023-09-07T10:24:30;101714.81;;;24.03;100.00
71165;BME280;58859;55.132;-1.586;2023-09-07T10:27:03;101705.25;;;24.72;100.00
71165;BME280;58859;55.132;-1.586;2023-09-07T10:29:43;101714.72;;;23.66;100.00
71165;BME280;58859;55.132;-1.586;2023-09-07T10:32:09;101709.25;;;23.34;100.00
71165;BME280;58859;55.132;-1.586;2023-09-07T10:34:38;101710.19;;;23.79;100.00
71165;BME280;58859;55.132;-1.586;2023-09-07T10:37:05;101698.31;;;23.88;100.00
71165;BME280;58859;55.132;-1.586;2023-09-07T10:39:34;101687.53;;;24.21;100.00
71165;BME280;58859;55.132;-1.586;2023-09-07T10:41:59;101682.59;;;24.63;100.00
71165;BME280;58859;55.132;-1.586;2023-09-07T10:44:26;101668.84;;;24.97;100.00
71165;BME280;58859;55.132;-1.586;2023-09-07T10:46:51;101676.91;;;24.21;100.00
71165;BME280;58859;55.132;-1.586;2023-09-07T10:49:18;101679.66;;;25.02;100.00
71165;BME280;58859;55.132;-1.586;2023-09-07T10:51:45;101676.19;;;24.70;100.00
71165;BME280;58859;55.132;-1.586;2023-09-07T10:54:27;101684.16;;;25.01;100.00
71165;BME280;58859;55.132;-1.586;2023-09-07T10:56:53;101685.41;;;24.68;100.00
71165;BME280;58859;55.132;-1.586;2023-09-07T10:59:18;101680.44;;;26.00;100.00
71165;BME280;58859;55.132;-1.586;2023-09-07T11:01:44;101662.84;;;26.28;100.00
71165;BME280;58859;55.132;-1.586;2023-09-07T11:04:10;101646.66;;;26.95;100.00
71165;BME280;58859;55.132;-1.586;2023-09-07T11:06:37;101632.97;;;26.38;100.00
71165;BME280;58859;55.132;-1.586;2023-09-07T11:09:03;101621.53;;;25.90;100.00
71165;BME280;58859;55.132;-1.586;2023-09-07T11:11:31;101642.84;;;26.49;100.00
71165;BME280;58859;55.132;-1.586;2023-09-07T11:13:58;101671.06;;;26.57;100.00
71165;BME280;58859;55.132;-1.586;2023-09-07T11:16:25;101678.56;;;27.59;100.00
71165;BME280;58859;55.132;-1.586;2023-09-07T11:18:51;101688.97;;;27.84;100.00
71165;BME280;58859;55.132;-1.586;2023-09-07T11:21:17;101683.31;;;27.34;100.00
71165;BME280;58859;55.132;-1.586;2023-09-07T11:23:44;101677.63;;;27.54;100.00
71165;BME280;58859;55.132;-1.586;2023-09-07T11:26:10;101677.44;;;27.95;100.00
71165;BME280;58859;55.132;-1.586;2023-09-07T11:28:35;101672.78;;;27.90;100.00
71165;BME280;58859;55.132;-1.586;2023-09-07T11:31:02;101671.66;;;29.26;100.00
71165;BME280;58859;55.132;-1.586;2023-09-07T11:33:31;101657.78;;;27.89;100.00
71165;BME280;58859;55.132;-1.586;2023-09-07T11:35:57;101651.25;;;28.25;100.00
71165;BME280;58859;55.132;-1.586;2023-09-07T11:38:22;101658.31;;;28.31;100.00
71165;BME280;58859;55.132;-1.586;2023-09-07T11:40:48;101666.09;;;28.33;100.00
71165;BME280;58859;55.132;-1.586;2023-09-07T11:43:17;101672.41;;;27.35;100.00
71165;BME280;58859;55.132;-1.586;2023-09-07T11:45:46;101648.56;;;27.69;100.00
71165;BME280;58859;55.132;-1.586;2023-09-07T11:48:11;101639.31;;;27.48;100.00
71165;BME280;58859;55.132;-1.586;2023-09-07T11:50:37;101635.22;;;27.57;100.00
71165;BME280;58859;55.132;-1.586;2023-09-07T11:53:04;101632.22;;;27.82;100.00
71165;BME280;58859;55.132;-1.586;2023-09-07T11:55:30;101625.00;;;28.56;100.00
71165;BME280;58859;55.132;-1.586;2023-09-07T11:57:56;101630.56;;;28.66;100.00
71165;BME280;58859;55.132;-1.586;2023-09-07T12:00:22;101639.25;;;28.28;100.00
71165;BME280;58859;55.132;-1.586;2023-09-07T12:02:47;101636.47;;;28.68;100.00
71165;BME280;58859;55.132;-1.586;2023-09-07T12:05:13;101638.19;;;29.12;100.00
71165;BME280;58859;55.132;-1.586;2023-09-07T12:07:41;101631.66;;;28.70;100.00
71165;BME280;58859;55.132;-1.586;2023-09-07T12:10:08;101629.41;;;27.88;100.00
71165;BME280;58859;55.132;-1.586;2023-09-07T12:12:41;101615.38;;;28.71;100.00
71165;BME280;58859;55.132;-1.586;2023-09-07T12:15:08;101622.78;;;27.39;100.00
71165;BME280;58859;55.132;-1.586;2023-09-07T12:17:34;101623.16;;;26.73;100.00
71165;BME280;58859;55.132;-1.586;2023-09-07T12:20:00;101627.56;;;26.56;100.00
71165;BME280;58859;55.132;-1.586;2023-09-07T12:22:26;101615.72;;;26.52;100.00
71165;BME280;58859;55.132;-1.586;2023-09-07T12:24:52;101617.34;;;26.53;100.00
71165;BME280;58859;55.132;-1.586;2023-09-07T12:27:18;101619.88;;;26.60;100.00